sensor_id;sensor_type;location;lat;lon;timestamp;temperature;humidity
29413;DHT22;16389;50.126;8.450;2023-05-10T00:01:38;13.60;99.90
29413;DHT22;16389;50.126;8.450;2023-05-10T00:04:03;13.60;99.90
29413;DHT22;16389;50.126;8.450;2023-05-10T00:06:29;13.60;99.90
29413;DHT22;16389;50.126;8.450;2023-05-10T00:08:55;13.60;99.90
29413;DHT22;16389;50.126;8.450;2023-05-10T00:11:21;13.60;99.90
29413;DHT22;16389;50.126;8.450;2023-05-10T00:13:47;13.60;99.90
29413;DHT22;16389;50.126;8.450;2023-05-10T00:16:13;13.60;99.90
29413;DHT22;16389;50.126;8.450;2023-05-10T00:18:39;13.50;99.90
29413;DHT22;16389;50.126;8.450;2023-05-10T00:21:05;13.50;99.90
29413;DHT22;16389;50.126;8.450;2023-05-10T00:23:31;13.50;99.90
29413;DHT22;16389;50.126;8.450;2023-05-10T00:25:57;13.50;99.90
29413;DHT22;16389;50.126;8.450;2023-05-10T00:28:23;13.40;99.90
29413;DHT22;16389;50.126;8.450;2023-05-10T00:30:48;13.40;99.90
29413;DHT22;16389;50.126;8.450;2023-05-10T00:33:14;13.40;99.90
29413;DHT22;16389;50.126;8.450;2023-05-10T00:35:39;13.40;99.90
29413;DHT22;16389;50.126;8.450;2023-05-10T00:38:05;13.40;99.90
29413;DHT22;16389;50.126;8.450;2023-05-10T00:40:31;13.40;99.90
29413;DHT22;16389;50.126;8.450;2023-05-10T00:42:57;13.30;99.90
29413;DHT22;16389;50.126;8.450;2023-05-10T00:45:23;13.30;99.90
29413;DHT22;16389;50.126;8.450;2023-05-10T00:47:50;13.40;99.90
29413;DHT22;16389;50.126;8.450;2023-05-10T00:50:20;13.30;99.90
29413;DHT22;16389;50.126;8.450;2023-05-10T00:52:46;13.30;99.90
29413;DHT22;16389;50.126;8.450;2023-05-10T00:55:12;13.30;99.90
29413;DHT22;16389;50.126;8.450;2023-05-10T00:57:38;13.30;99.90
29413;DHT22;16389;50.126;8.450;2023-05-10T01:00:04;13.30;99.90
29413;DHT22;16389;50.126;8.450;2023-05-10T01:02:30;13.30;99.90
29413;DHT22;16389;50.126;8.450;2023-05-10T01:04:55;13.30;99.90
29413;DHT22;16389;50.126;8.450;2023-05-10T01:07:21;13.20;99.90
29413;DHT22;16389;50.126;8.450;2023-05-10T01:09:47;13.20;99.90
29413;DHT22;16389;50.126;8.450;2023-05-10T01:12:13;13.20;99.90
29413;DHT22;16389;50.126;8.450;2023-05-10T01:14:39;13.20;99.90
29413;DHT22;16389;50.126;8.450;2023-05-10T01:17:06;13.20;99.90
29413;DHT22;16389;50.126;8.450;2023-05-10T01:19:34;13.10;99.90
29413;DHT22;16389;50.126;8.450;2023-05-10T01:22:36;13.20;99.90
29413;DHT22;16389;50.126;8.450;2023-05-10T01:28:14;13.10;99.90
29413;DHT22;16389;50.126;8.450;2023-05-10T01:31:03;13.10;99.90
29413;DHT22;16389;50.126;8.450;2023-05-10T01:33:51;13.20;99.90
29413;DHT22;16389;50.126;8.450;2023-05-10T01:37:00;13.10;99.90
29413;DHT22;16389;50.126;8.450;2023-05-10T01:42:11;13.10;99.90
29413;DHT22;16389;50.126;8.450;2023-05-10T01:47:10;13.00;99.90
29413;DHT22;16389;50.126;8.450;2023-05-10T01:49:45;13.00;99.90
29413;DHT22;16389;50.126;8.450;2023-05-10T01:52:18;13.00;99.90
29413;DHT22;16389;50.126;8.450;2023-05-10T01:54:55;12.90;99.90
29413;DHT22;16389;50.126;8.450;2023-05-10T01:57:22;12.90;99.90
29413;DHT22;16389;50.126;8.450;2023-05-10T01:59:50;12.90;99.90
29413;DHT22;16389;50.126;8.450;2023-05-10T02:02:19;12.90;99.90
29413;DHT22;16389;50.126;8.450;2023-05-10T02:04:46;12.80;99.90
29413;DHT22;16389;50.126;8.450;2023-05-10T02:07:14;12.80;99.90
29413;DHT22;16389;50.126;8.450;2023-05-10T02:09:40;12.80;99.90
29413;DHT22;16389;50.126;8.450;2023-05-10T02:12:09;12.80;99.90
29413;DHT22;16389;50.126;8.450;2023-05-10T02:14:37;12.80;99.90
29413;DHT22;16389;50.126;8.450;2023-05-10T02:17:06;12.80;99.90
29413;DHT22;16389;50.126;8.450;2023-05-10T02:19:34;12.80;99.90
29413;DHT22;16389;50.126;8.450;2023-05-10T02:22:01;12.80;99.90
29413;DHT22;16389;50.126;8.450;2023-05-10T02:24:29;12.80;99.90
29413;DHT22;16389;50.126;8.450;2023-05-10T02:26:55;12.70;99.90
29413;DHT22;16389;50.126;8.450;2023-05-10T02:29:25;12.70;99.90
29413;DHT22;16389;50.126;8.450;2023-05-10T02:31:52;12.70;99.90
29413;DHT22;16389;50.126;8.450;2023-05-10T02:34:18;12.70;99.90
29413;DHT22;16389;50.126;8.450;2023-05-10T02:36:44;12.70;99.90
29413;DHT22;16389;50.126;8.450;2023-05-10T02:39:11;12.70;99.90
29413;DHT22;16389;50.126;8.450;2023-05-10T02:41:40;12.70;99.90
29413;DHT22;16389;50.126;8.450;2023-05-10T02:44:08;12.70;99.90
29413;DHT22;16389;50.126;8.450;2023-05-10T02:46:35;12.70;99.90
29413;DHT22;16389;50.126;8.450;2023-05-10T02:49:03;12.70;99.90
29413;DHT22;16389;50.126;8.450;2023-05-10T02:51:31;12.70;99.90
29413;DHT22;16389;50.126;8.450;2023-05-10T02:54:01;12.60;99.90
29413;DHT22;16389;50.126;8.450;2023-05-10T02:56:33;12.60;99.90
29413;DHT22;16389;50.126;8.450;2023-05-10T02:58:59;12.60;99.90
29413;DHT22;16389;50.126;8.450;2023-05-10T03:01:25;12.60;99.90
29413;DHT22;16389;50.126;8.450;2023-05-10T03:03:51;12.50;99.90
29413;DHT22;16389;50.126;8.450;2023-05-10T03:06:16;12.50;99.90
29413;DHT22;16389;50.126;8.450;2023-05-10T03:08:43;12.50;99.90
29413;DHT22;16389;50.126;8.450;2023-05-10T03:17:10;12.40;99.90
29413;DHT22;16389;50.126;8.450;2023-05-10T03:19:55;12.40;99.90
29413;DHT22;16389;50.126;8.450;2023-05-10T03:22:31;12.40;99.90
29413;DHT22;16389;50.126;8.450;2023-05-10T03:24:57;12.40;99.90
29413;DHT22;16389;50.126;8.450;2023-05-10T03:27:26;12.40;99.90
29413;DHT22;16389;50.126;8.450;2023-05-10T03:29:56;12.40;99.90
29413;DHT22;16389;50.126;8.450;2023-05-10T03:32:22;12.40;99.90
29413;DHT22;16389;50.126;8.450;2023-05-10T03:34:48;12.40;99.90
29413;DHT22;16389;50.126;8.450;2023-05-10T03:37:14;12.40;99.90
29413;DHT22;16389;50.126;8.450;2023-05-10T03:39:40;12.40;99.90
29413;DHT22;16389;50.126;8.450;2023-05-10T03:42:06;12.40;99.90
29413;DHT22;16389;50.126;8.450;2023-05-10T03:44:31;12.40;99.90
29413;DHT22;16389;50.126;8.450;2023-05-10T03:46:58;12.40;99.90
29413;DHT22;16389;50.126;8.450;2023-05-10T03:49:24;12.50;99.90
29413;DHT22;16389;50.126;8.450;2023-05-10T03:51:50;12.50;99.90
29413;DHT22;16389;50.126;8.450;2023-05-10T03:54:15;12.50;99.90
29413;DHT22;16389;50.126;8.450;2023-05-10T03:56:41;12.50;99.90
29413;DHT22;16389;50.126;8.450;2023-05-10T03:59:07;12.50;99.90
29413;DHT22;16389;50.126;8.450;2023-05-10T04:01:34;12.50;99.90
29413;DHT22;16389;50.126;8.450;2023-05-10T04:04:00;12.50;99.90
29413;DHT22;16389;50.126;8.450;2023-05-10T04:06:25;12.60;99.90
29413;DHT22;16389;50.126;8.450;2023-05-10T04:08:51;12.60;99.90
29413;DHT22;16389;50.126;8.450;2023-05-10T04:11:17;12.60;99.90
29413;DHT22;16389;50.126;8.450;2023-05-10T04:13:42;12.60;99.90
29413;DHT22;16389;50.126;8.450;2023-05-10T04:16:08;12.70;99.90
29413;DHT22;16389;50.126;8.450;2023-05-10T04:18:34;12.70;99.90
29413;DHT22;16389;50.126;8.450;2023-05-10T04:21:00;12.70;99.90
29413;DHT22;16389;50.126;8.450;2023-05-10T04:23:27;12.70;99.90
29413;DHT22;16389;50.126;8.450;2023-05-10T04:25:52;12.70;99.90
29413;DHT22;16389;50.126;8.450;2023-05-10T04:28:23;12.70;99.90
29413;DHT22;16389;50.126;8.450;2023-05-10T04:30:49;12.70;99.90
29413;DHT22;16389;50.126;8.450;2023-05-10T04:33:14;12.80;99.90
29413;DHT22;16389;50.126;8.450;2023-05-10T04:35:40;12.80;99.90
29413;DHT22;16389;50.126;8.450;2023-05-10T04:38:06;12.80;99.90
29413;DHT22;16389;50.126;8.450;2023-05-10T04:40:32;12.80;99.90
29413;DHT22;16389;50.126;8.450;2023-05-10T04:42:57;12.80;99.90
29413;DHT22;16389;50.126;8.450;2023-05-10T04:45:23;12.80;99.90
29413;DHT22;16389;50.126;8.450;2023-05-10T04:47:49;12.90;99.90
29413;DHT22;16389;50.126;8.450;2023-05-10T04:50:14;12.90;99.90
29413;DHT22;16389;50.126;8.450;2023-05-10T04:52:40;13.00;99.90
29413;DHT22;16389;50.126;8.450;2023-05-10T04:55:06;13.00;99.90
29413;DHT22;16389;50.126;8.450;2023-05-10T04:57:34;13.00;99.90
29413;DHT22;16389;50.126;8.450;2023-05-10T05:00:00;13.00;99.90
29413;DHT22;16389;50.126;8.450;2023-05-10T05:02:25;13.00;99.90
29413;DHT22;16389;50.126;8.450;2023-05-10T05:04:51;13.00;99.90
29413;DHT22;16389;50.126;8.450;2023-05-10T05:07:17;13.10;99.90
29413;DHT22;16389;50.126;8.450;2023-05-10T05:09:42;13.10;99.90
29413;DHT22;16389;50.126;8.450;2023-05-10T05:12:08;13.10;99.90
29413;DHT22;16389;50.126;8.450;2023-05-10T05:14:33;13.10;99.90
29413;DHT22;16389;50.126;8.450;2023-05-10T05:16:59;13.10;99.90
29413;DHT22;16389;50.126;8.450;2023-05-10T05:19:25;13.10;99.90
29413;DHT22;16389;50.126;8.450;2023-05-10T05:21:50;13.10;99.90
29413;DHT22;16389;50.126;8.450;2023-05-10T05:24:16;13.10;99.90
29413;DHT22;16389;50.126;8.450;2023-05-10T05:26:41;13.10;99.90
29413;DHT22;16389;50.126;8.450;2023-05-10T05:29:07;13.20;99.90
29413;DHT22;16389;50.126;8.450;2023-05-10T05:31:32;13.20;99.90
29413;DHT22;16389;50.126;8.450;2023-05-10T05:33:58;13.20;99.90
29413;DHT22;16389;50.126;8.450;2023-05-10T05:36:24;13.20;99.90
29413;DHT22;16389;50.126;8.450;2023-05-10T05:38:49;13.10;99.90
29413;DHT22;16389;50.126;8.450;2023-05-10T05:41:15;13.10;99.90
29413;DHT22;16389;50.126;8.450;2023-05-10T05:43:41;13.20;99.90
29413;DHT22;16389;50.126;8.450;2023-05-10T05:46:06;13.20;99.90
29413;DHT22;16389;50.126;8.450;2023-05-10T05:48:32;13.10;99.90
29413;DHT22;16389;50.126;8.450;2023-05-10T05:50:57;13.10;99.90
29413;DHT22;16389;50.126;8.450;2023-05-10T05:53:23;13.10;99.90
29413;DHT22;16389;50.126;8.450;2023-05-10T05:58:18;13.20;99.90
29413;DHT22;16389;50.126;8.450;2023-05-10T06:00:44;13.20;99.90
29413;DHT22;16389;50.126;8.450;2023-05-10T06:03:10;13.30;99.90
29413;DHT22;16389;50.126;8.450;2023-05-10T06:05:35;13.50;99.90
29413;DHT22;16389;50.126;8.450;2023-05-10T06:08:01;13.60;99.90
29413;DHT22;16389;50.126;8.450;2023-05-10T06:10:27;13.60;99.90
29413;DHT22;16389;50.126;8.450;2023-05-10T06:12:52;13.70;99.90
29413;DHT22;16389;50.126;8.450;2023-05-10T06:15:18;13.80;99.90
29413;DHT22;16389;50.126;8.450;2023-05-10T06:17:44;13.80;99.90
29413;DHT22;16389;50.126;8.450;2023-05-10T06:20:10;13.90;99.90
29413;DHT22;16389;50.126;8.450;2023-05-10T06:22:36;13.80;99.90
29413;DHT22;16389;50.126;8.450;2023-05-10T06:25:01;13.80;99.90
29413;DHT22;16389;50.126;8.450;2023-05-10T06:27:27;13.80;99.90
29413;DHT22;16389;50.126;8.450;2023-05-10T06:29:53;13.80;99.90
29413;DHT22;16389;50.126;8.450;2023-05-10T06:32:19;13.80;99.90
29413;DHT22;16389;50.126;8.450;2023-05-10T06:34:44;13.80;99.90
29413;DHT22;16389;50.126;8.450;2023-05-10T06:37:10;13.90;99.90
29413;DHT22;16389;50.126;8.450;2023-05-10T06:39:35;13.90;99.90
29413;DHT22;16389;50.126;8.450;2023-05-10T06:42:02;14.10;99.90
29413;DHT22;16389;50.126;8.450;2023-05-10T06:44:28;14.20;99.90
29413;DHT22;16389;50.126;8.450;2023-05-10T06:46:53;14.40;99.90
29413;DHT22;16389;50.126;8.450;2023-05-10T06:49:21;14.50;99.90
29413;DHT22;16389;50.126;8.450;2023-05-10T06:51:46;14.70;99.90
29413;DHT22;16389;50.126;8.450;2023-05-10T06:54:12;14.80;99.90
29413;DHT22;16389;50.126;8.450;2023-05-10T06:56:37;14.90;99.90
29413;DHT22;16389;50.126;8.450;2023-05-10T06:59:03;15.00;99.90
29413;DHT22;16389;50.126;8.450;2023-05-10T07:01:28;15.10;99.90
29413;DHT22;16389;50.126;8.450;2023-05-10T07:03:54;15.10;99.90
29413;DHT22;16389;50.126;8.450;2023-05-10T07:06:20;15.10;99.90
29413;DHT22;16389;50.126;8.450;2023-05-10T07:08:45;15.20;99.90
29413;DHT22;16389;50.126;8.450;2023-05-10T07:11:11;15.10;99.90
29413;DHT22;16389;50.126;8.450;2023-05-10T07:13:36;15.10;99.90
29413;DHT22;16389;50.126;8.450;2023-05-10T07:16:04;15.00;99.90
29413;DHT22;16389;50.126;8.450;2023-05-10T07:18:31;14.90;99.90
29413;DHT22;16389;50.126;8.450;2023-05-10T07:20:57;14.90;99.90
29413;DHT22;16389;50.126;8.450;2023-05-10T07:23:23;15.10;99.90
29413;DHT22;16389;50.126;8.450;2023-05-10T07:25:49;15.10;99.90
29413;DHT22;16389;50.126;8.450;2023-05-10T07:28:18;15.40;99.90
29413;DHT22;16389;50.126;8.450;2023-05-10T07:30:44;15.50;99.90
29413;DHT22;16389;50.126;8.450;2023-05-10T07:33:11;15.70;99.90
29413;DHT22;16389;50.126;8.450;2023-05-10T07:35:37;15.80;99.90
29413;DHT22;16389;50.126;8.450;2023-05-10T07:38:03;16.00;99.90
29413;DHT22;16389;50.126;8.450;2023-05-10T07:40:29;16.10;99.90
29413;DHT22;16389;50.126;8.450;2023-05-10T07:42:54;16.10;99.90
29413;DHT22;16389;50.126;8.450;2023-05-10T07:45:20;16.20;99.90
29413;DHT22;16389;50.126;8.450;2023-05-10T07:47:46;16.20;99.90
29413;DHT22;16389;50.126;8.450;2023-05-10T07:50:11;16.30;99.90
29413;DHT22;16389;50.126;8.450;2023-05-10T07:52:37;16.20;99.90
29413;DHT22;16389;50.126;8.450;2023-05-10T07:55:03;16.30;99.90
29413;DHT22;16389;50.126;8.450;2023-05-10T07:57:29;16.40;99.90
29413;DHT22;16389;50.126;8.450;2023-05-10T07:59:55;16.40;99.90
29413;DHT22;16389;50.126;8.450;2023-05-10T08:02:20;16.40;99.90
29413;DHT22;16389;50.126;8.450;2023-05-10T08:04:46;16.60;99.90
29413;DHT22;16389;50.126;8.450;2023-05-10T08:07:11;16.60;99.90
29413;DHT22;16389;50.126;8.450;2023-05-10T08:09:37;16.70;99.90
29413;DHT22;16389;50.126;8.450;2023-05-10T08:12:03;16.70;99.90
29413;DHT22;16389;50.126;8.450;2023-05-10T08:14:29;16.60;99.90
29413;DHT22;16389;50.126;8.450;2023-05-10T08:16:55;16.70;99.90
29413;DHT22;16389;50.126;8.450;2023-05-10T08:19:21;16.70;99.90
29413;DHT22;16389;50.126;8.450;2023-05-10T08:21:48;16.70;99.90
29413;DHT22;16389;50.126;8.450;2023-05-10T08:24:14;16.60;99.90
29413;DHT22;16389;50.126;8.450;2023-05-10T08:26:40;16.70;99.90
29413;DHT22;16389;50.126;8.450;2023-05-10T08:29:05;16.40;99.90
29413;DHT22;16389;50.126;8.450;2023-05-10T08:31:31;16.20;99.90
29413;DHT22;16389;50.126;8.450;2023-05-10T08:33:57;15.90;99.90
29413;DHT22;16389;50.126;8.450;2023-05-10T08:36:22;15.80;99.90
29413;DHT22;16389;50.126;8.450;2023-05-10T08:38:53;15.90;99.90
29413;DHT22;16389;50.126;8.450;2023-05-10T08:41:23;15.90;99.90
29413;DHT22;16389;50.126;8.450;2023-05-10T08:43:54;15.90;99.90
29413;DHT22;16389;50.126;8.450;2023-05-10T08:46:21;16.10;99.90
29413;DHT22;16389;50.126;8.450;2023-05-10T08:48:49;16.20;99.90
29413;DHT22;16389;50.126;8.450;2023-05-10T08:51:20;16.30;99.90
29413;DHT22;16389;50.126;8.450;2023-05-10T08:53:47;16.40;99.90
29413;DHT22;16389;50.126;8.450;2023-05-10T08:56:13;16.30;99.90
29413;DHT22;16389;50.126;8.450;2023-05-10T08:58:41;16.30;99.90
29413;DHT22;16389;50.126;8.450;2023-05-10T09:01:07;16.30;99.90
29413;DHT22;16389;50.126;8.450;2023-05-10T09:03:34;16.20;99.90
29413;DHT22;16389;50.126;8.450;2023-05-10T09:06:00;16.10;99.90
29413;DHT22;16389;50.126;8.450;2023-05-10T09:08:26;16.30;99.90
29413;DHT22;16389;50.126;8.450;2023-05-10T09:10:54;16.50;99.90
29413;DHT22;16389;50.126;8.450;2023-05-10T09:13:21;16.70;99.90
29413;DHT22;16389;50.126;8.450;2023-05-10T09:15:47;16.80;99.90
29413;DHT22;16389;50.126;8.450;2023-05-10T09:18:13;16.90;99.90
29413;DHT22;16389;50.126;8.450;2023-05-10T09:20:40;17.00;99.90
29413;DHT22;16389;50.126;8.450;2023-05-10T09:23:06;17.40;99.90
29413;DHT22;16389;50.126;8.450;2023-05-10T09:25:32;18.00;99.90
29413;DHT22;16389;50.126;8.450;2023-05-10T09:27:59;18.50;99.90
29413;DHT22;16389;50.126;8.450;2023-05-10T09:30:29;18.70;99.90
29413;DHT22;16389;50.126;8.450;2023-05-10T09:32:56;18.60;99.90
29413;DHT22;16389;50.126;8.450;2023-05-10T09:35:24;18.40;99.90
29413;DHT22;16389;50.126;8.450;2023-05-10T09:37:55;18.00;99.90
29413;DHT22;16389;50.126;8.450;2023-05-10T09:40:26;17.50;99.90
29413;DHT22;16389;50.126;8.450;2023-05-10T09:42:58;17.20;99.90
29413;DHT22;16389;50.126;8.450;2023-05-10T09:45:26;17.10;99.90
29413;DHT22;16389;50.126;8.450;2023-05-10T09:47:53;17.10;99.90
29413;DHT22;16389;50.126;8.450;2023-05-10T09:50:20;17.10;99.90
29413;DHT22;16389;50.126;8.450;2023-05-10T09:53:00;17.00;99.90
29413;DHT22;16389;50.126;8.450;2023-05-10T09:55:39;17.20;99.90
29413;DHT22;16389;50.126;8.450;2023-05-10T09:58:05;17.60;99.90
29413;DHT22;16389;50.126;8.450;2023-05-10T10:00:43;18.00;99.90
29413;DHT22;16389;50.126;8.450;2023-05-10T10:03:14;18.40;99.90
29413;DHT22;16389;50.126;8.450;2023-05-10T10:05:41;18.80;99.90
29413;DHT22;16389;50.126;8.450;2023-05-10T10:08:08;19.20;99.90
29413;DHT22;16389;50.126;8.450;2023-05-10T10:10:34;19.50;99.90
29413;DHT22;16389;50.126;8.450;2023-05-10T10:13:00;19.30;99.90
29413;DHT22;16389;50.126;8.450;2023-05-10T10:15:26;18.80;99.90
29413;DHT22;16389;50.126;8.450;2023-05-10T10:17:53;18.20;99.90
29413;DHT22;16389;50.126;8.450;2023-05-10T10:20:20;17.50;99.90
29413;DHT22;16389;50.126;8.450;2023-05-10T10:22:47;16.90;99.90
29413;DHT22;16389;50.126;8.450;2023-05-10T10:25:15;16.10;99.90
29413;DHT22;16389;50.126;8.450;2023-05-10T10:30:39;15.00;99.90
29413;DHT22;16389;50.126;8.450;2023-05-10T10:35:58;14.70;99.90
29413;DHT22;16389;50.126;8.450;2023-05-10T10:38:24;14.80;99.90
29413;DHT22;16389;50.126;8.450;2023-05-10T10:41:02;14.90;99.90
29413;DHT22;16389;50.126;8.450;2023-05-10T10:43:28;15.00;99.90
29413;DHT22;16389;50.126;8.450;2023-05-10T10:48:50;15.50;99.90
29413;DHT22;16389;50.126;8.450;2023-05-10T10:51:19;15.50;99.90
29413;DHT22;16389;50.126;8.450;2023-05-10T10:53:47;15.60;99.90
29413;DHT22;16389;50.126;8.450;2023-05-10T10:56:13;15.70;99.90
29413;DHT22;16389;50.126;8.450;2023-05-10T10:58:41;15.80;99.90
29413;DHT22;16389;50.126;8.450;2023-05-10T11:01:15;15.80;99.90
29413;DHT22;16389;50.126;8.450;2023-05-10T11:03:54;15.70;99.90
29413;DHT22;16389;50.126;8.450;2023-05-10T11:06:30;15.50;99.90
29413;DHT22;16389;50.126;8.450;2023-05-10T11:09:05;15.40;99.90
29413;DHT22;16389;50.126;8.450;2023-05-10T11:11:31;15.40;99.90
29413;DHT22;16389;50.126;8.450;2023-05-10T11:14:03;15.50;99.90
29413;DHT22;16389;50.126;8.450;2023-05-10T11:16:43;15.50;99.90
29413;DHT22;16389;50.126;8.450;2023-05-10T11:19:11;15.70;99.90
29413;DHT22;16389;50.126;8.450;2023-05-10T11:21:51;15.80;99.90
29413;DHT22;16389;50.126;8.450;2023-05-10T11:24:19;15.90;99.90
29413;DHT22;16389;50.126;8.450;2023-05-10T11:26:45;16.00;99.90
29413;DHT22;16389;50.126;8.450;2023-05-10T11:29:13;16.10;99.90
29413;DHT22;16389;50.126;8.450;2023-05-10T11:31:45;16.10;99.90
29413;DHT22;16389;50.126;8.450;2023-05-10T11:34:22;16.10;99.90
29413;DHT22;16389;50.126;8.450;2023-05-10T11:36:51;16.10;99.90
29413;DHT22;16389;50.126;8.450;2023-05-10T11:39:19;16.20;99.90
29413;DHT22;16389;50.126;8.450;2023-05-10T11:41:48;16.40;99.90
29413;DHT22;16389;50.126;8.450;2023-05-10T11:44:14;16.80;99.90
29413;DHT22;16389;50.126;8.450;2023-05-10T11:46:40;17.20;99.90
29413;DHT22;16389;50.126;8.450;2023-05-10T11:49:07;18.20;99.90
29413;DHT22;16389;50.126;8.450;2023-05-10T11:51:34;19.00;99.90
29413;DHT22;16389;50.126;8.450;2023-05-10T11:54:08;19.50;99.90
29413;DHT22;16389;50.126;8.450;2023-05-10T11:56:35;20.30;99.90
29413;DHT22;16389;50.126;8.450;2023-05-10T11:59:01;21.00;99.90
29413;DHT22;16389;50.126;8.450;2023-05-10T12:01:28;21.70;99.90
29413;DHT22;16389;50.126;8.450;2023-05-10T12:03:56;22.00;99.90
29413;DHT22;16389;50.126;8.450;2023-05-10T12:06:29;22.60;99.90
29413;DHT22;16389;50.126;8.450;2023-05-10T12:08:57;22.60;99.90
29413;DHT22;16389;50.126;8.450;2023-05-10T12:11:27;22.30;99.90
29413;DHT22;16389;50.126;8.450;2023-05-10T12:13:54;22.10;99.90
29413;DHT22;16389;50.126;8.450;2023-05-10T12:16:24;21.60;99.90
29413;DHT22;16389;50.126;8.450;2023-05-10T12:18:52;21.20;99.90
29413;DHT22;16389;50.126;8.450;2023-05-10T12:21:21;20.40;99.90
29413;DHT22;16389;50.126;8.450;2023-05-10T12:23:52;19.80;99.90
29413;DHT22;16389;50.126;8.450;2023-05-10T12:26:21;19.50;99.90
29413;DHT22;16389;50.126;8.450;2023-05-10T12:28:47;19.40;99.90
29413;DHT22;16389;50.126;8.450;2023-05-10T12:31:12;20.00;99.90
29413;DHT22;16389;50.126;8.450;2023-05-10T12:33:45;21.10;99.90
29413;DHT22;16389;50.126;8.450;2023-05-10T12:36:14;22.50;99.90
29413;DHT22;16389;50.126;8.450;2023-05-10T12:38:41;23.60;99.90
29413;DHT22;16389;50.126;8.450;2023-05-10T12:41:17;24.30;99.90
29413;DHT22;16389;50.126;8.450;2023-05-10T12:43:43;24.60;99.90
29413;DHT22;16389;50.126;8.450;2023-05-10T12:46:10;24.60;99.90
29413;DHT22;16389;50.126;8.450;2023-05-10T12:48:37;24.40;99.90
29413;DHT22;16389;50.126;8.450;2023-05-10T12:51:04;23.80;99.90
29413;DHT22;16389;50.126;8.450;2023-05-10T12:53:30;23.70;99.90
29413;DHT22;16389;50.126;8.450;2023-05-10T12:55:56;22.90;99.90
29413;DHT22;16389;50.126;8.450;2023-05-10T12:58:22;21.90;99.90
29413;DHT22;16389;50.126;8.450;2023-05-10T13:00:48;21.00;99.90
29413;DHT22;16389;50.126;8.450;2023-05-10T13:03:14;20.10;99.90
29413;DHT22;16389;50.126;8.450;2023-05-10T13:05:41;19.30;99.90
29413;DHT22;16389;50.126;8.450;2023-05-10T13:08:06;19.00;99.90
29413;DHT22;16389;50.126;8.450;2023-05-10T13:10:32;18.60;99.90
29413;DHT22;16389;50.126;8.450;2023-05-10T13:12:58;18.50;99.90
29413;DHT22;16389;50.126;8.450;2023-05-10T13:15:25;18.60;99.90
29413;DHT22;16389;50.126;8.450;2023-05-10T13:17:51;18.80;99.90
29413;DHT22;16389;50.126;8.450;2023-05-10T13:20:17;19.10;99.90
29413;DHT22;16389;50.126;8.450;2023-05-10T13:22:43;19.50;99.90
29413;DHT22;16389;50.126;8.450;2023-05-10T13:25:10;19.70;99.90
29413;DHT22;16389;50.126;8.450;2023-05-10T13:27:36;19.70;99.90
29413;DHT22;16389;50.126;8.450;2023-05-10T13:30:02;20.20;99.90
29413;DHT22;16389;50.126;8.450;2023-05-10T13:32:29;21.80;99.90
29413;DHT22;16389;50.126;8.450;2023-05-10T13:34:55;23.40;99.90
29413;DHT22;16389;50.126;8.450;2023-05-10T13:37:21;24.30;99.90
29413;DHT22;16389;50.126;8.450;2023-05-10T13:39:47;25.30;99.90
29413;DHT22;16389;50.126;8.450;2023-05-10T13:42:13;26.90;97.50
29413;DHT22;16389;50.126;8.450;2023-05-10T13:44:39;27.80;93.50
29413;DHT22;16389;50.126;8.450;2023-05-10T13:47:05;28.80;91.90
29413;DHT22;16389;50.126;8.450;2023-05-10T13:49:30;28.90;89.80
29413;DHT22;16389;50.126;8.450;2023-05-10T13:51:56;27.80;90.30
29413;DHT22;16389;50.126;8.450;2023-05-10T13:54:22;26.90;90.00
29413;DHT22;16389;50.126;8.450;2023-05-10T13:56:48;26.40;92.00
29413;DHT22;16389;50.126;8.450;2023-05-10T13:59:14;27.00;91.60
29413;DHT22;16389;50.126;8.450;2023-05-10T14:01:40;27.40;87.40
29413;DHT22;16389;50.126;8.450;2023-05-10T14:04:06;28.60;91.10
29413;DHT22;16389;50.126;8.450;2023-05-10T14:06:38;28.50;91.10
29413;DHT22;16389;50.126;8.450;2023-05-10T14:09:03;28.10;90.70
29413;DHT22;16389;50.126;8.450;2023-05-10T14:11:29;26.90;85.90
29413;DHT22;16389;50.126;8.450;2023-05-10T14:13:55;25.60;89.10
29413;DHT22;16389;50.126;8.450;2023-05-10T14:16:21;24.90;91.50
29413;DHT22;16389;50.126;8.450;2023-05-10T14:18:47;24.10;94.30
29413;DHT22;16389;50.126;8.450;2023-05-10T14:21:12;23.50;94.60
29413;DHT22;16389;50.126;8.450;2023-05-10T14:23:38;22.90;94.20
29413;DHT22;16389;50.126;8.450;2023-05-10T14:26:04;22.30;95.20
29413;DHT22;16389;50.126;8.450;2023-05-10T14:28:30;22.10;99.90
29413;DHT22;16389;50.126;8.450;2023-05-10T14:30:55;22.20;99.90
29413;DHT22;16389;50.126;8.450;2023-05-10T14:33:21;22.20;99.10
29413;DHT22;16389;50.126;8.450;2023-05-10T14:35:48;21.90;99.90
29413;DHT22;16389;50.126;8.450;2023-05-10T14:38:15;21.90;99.90
29413;DHT22;16389;50.126;8.450;2023-05-10T14:40:40;21.80;99.90
29413;DHT22;16389;50.126;8.450;2023-05-10T14:43:06;21.80;99.80
29413;DHT22;16389;50.126;8.450;2023-05-10T14:45:32;21.70;99.90
29413;DHT22;16389;50.126;8.450;2023-05-10T14:47:58;21.70;99.70
29413;DHT22;16389;50.126;8.450;2023-05-10T14:50:24;21.40;99.90
29413;DHT22;16389;50.126;8.450;2023-05-10T14:52:50;21.60;99.90
29413;DHT22;16389;50.126;8.450;2023-05-10T14:55:15;22.10;99.90
29413;DHT22;16389;50.126;8.450;2023-05-10T14:57:41;22.50;99.90
29413;DHT22;16389;50.126;8.450;2023-05-10T15:00:08;22.40;98.70
29413;DHT22;16389;50.126;8.450;2023-05-10T15:02:34;22.40;98.90
29413;DHT22;16389;50.126;8.450;2023-05-10T15:05:00;22.20;98.00
29413;DHT22;16389;50.126;8.450;2023-05-10T15:07:25;21.90;98.80
29413;DHT22;16389;50.126;8.450;2023-05-10T15:09:51;21.90;99.90
29413;DHT22;16389;50.126;8.450;2023-05-10T15:12:18;22.50;99.30
29413;DHT22;16389;50.126;8.450;2023-05-10T15:14:44;23.00;97.80
29413;DHT22;16389;50.126;8.450;2023-05-10T15:17:10;23.30;95.70
29413;DHT22;16389;50.126;8.450;2023-05-10T15:19:36;23.30;95.50
29413;DHT22;16389;50.126;8.450;2023-05-10T15:22:03;23.70;98.30
29413;DHT22;16389;50.126;8.450;2023-05-10T15:24:29;24.50;96.40
29413;DHT22;16389;50.126;8.450;2023-05-10T15:26:55;25.00;97.10
29413;DHT22;16389;50.126;8.450;2023-05-10T15:29:20;25.20;95.00
29413;DHT22;16389;50.126;8.450;2023-05-10T15:31:50;24.70;93.20
29413;DHT22;16389;50.126;8.450;2023-05-10T15:34:17;24.70;91.10
29413;DHT22;16389;50.126;8.450;2023-05-10T15:36:44;24.60;91.80
29413;DHT22;16389;50.126;8.450;2023-05-10T15:39:11;24.30;92.80
29413;DHT22;16389;50.126;8.450;2023-05-10T15:41:37;24.30;94.80
29413;DHT22;16389;50.126;8.450;2023-05-10T15:44:03;24.10;93.40
29413;DHT22;16389;50.126;8.450;2023-05-10T15:46:29;23.90;94.30
29413;DHT22;16389;50.126;8.450;2023-05-10T15:48:56;23.50;96.20
29413;DHT22;16389;50.126;8.450;2023-05-10T15:51:22;23.40;92.80
29413;DHT22;16389;50.126;8.450;2023-05-10T15:53:47;23.00;95.20
29413;DHT22;16389;50.126;8.450;2023-05-10T15:56:15;22.50;95.10